Time;durP1;ratioP1;P1;durP2;ratioP2;P2;SDS_P1;SDS_P2;PMS_P1;PMS_P2;Temp;Humidity;BMP_temperature;BMP_pressure;BME280_temperature;BME280_humidity;BME280_pressure;Samples;Min_cycle;Max_cycle;Signal;HPM_P1;HPM_P2
2024/01/29 00:00:52;;;;;;;;;43.00;36.67;;;;;8.72;67.91;102039.75;5121817;27;45215;-78
2024/01/29 00:03:17;;;;;;;;;34.00;32.00;;;;;8.39;67.30;101984.47;5119805;27;45055;-89
2024/01/29 00:05:44;;;;;;;;;38.67;32.67;;;;;9.07;67.35;102101.94;5116624;27;44955;-84
2024/01/29 00:08:11;;;;;;;;;45.00;35.33;;;;;9.16;67.10;102116.38;5114311;27;45101;-75
2024/01/29 00:10:36;;;;;;;;;42.33;35.67;;;;;9.14;67.44;102120.94;5115248;27;45623;-82
2024/01/29 00:13:02;;;;;;;;;38.00;34.67;;;;;9.19;67.65;102129.44;5114080;27;44976;-79
2024/01/29 00:15:27;;;;;;;;;40.67;35.00;;;;;9.10;67.35;102119.44;5105999;27;45412;-76
2024/01/29 00:17:52;;;;;;;;;37.00;33.67;;;;;9.20;67.34;102141.75;5079355;27;45120;-82
2024/01/29 00:20:18;;;;;;;;;38.33;33.67;;;;;9.13;66.95;102125.41;5115880;27;45501;-79
2024/01/29 00:22:43;;;;;;;;;41.00;34.67;;;;;9.12;67.32;102118.41;5115915;27;45440;-80
2024/01/29 00:25:08;;;;;;;;;39.33;32.33;;;;;9.21;67.16;102138.19;5112333;27;45505;-78
2024/01/29 00:27:34;;;;;;;;;40.67;34.00;;;;;9.18;67.31;102138.34;5113818;27;45191;-79
2024/01/29 00:30:01;;;;;;;;;43.33;37.00;;;;;9.18;67.19;102142.81;5113384;27;45536;-77
2024/01/29 00:32:27;;;;;;;;;48.33;36.33;;;;;9.16;67.48;102134.97;5112379;27;45346;-78
2024/01/29 00:34:53;;;;;;;;;43.67;36.33;;;;;9.04;67.30;102122.53;5092339;28;45078;-79
2024/01/29 00:37:20;;;;;;;;;42.67;37.00;;;;;9.04;67.15;102119.88;5093868;27;45117;-78
2024/01/29 00:39:45;;;;;;;;;47.33;36.00;;;;;8.53;67.72;102030.34;5095330;27;46204;-80
2024/01/29 00:42:10;;;;;;;;;42.33;35.33;;;;;9.08;67.08;102131.97;5100574;27;45090;-80
2024/01/29 00:44:36;;;;;;;;;38.00;34.00;;;;;9.16;66.98;102153.53;5115301;27;44989;-76
2024/01/29 00:47:02;;;;;;;;;45.33;36.67;;;;;8.74;66.94;102075.81;5111052;27;45076;-81
2024/01/29 00:49:31;;;;;;;;;41.67;35.00;;;;;9.15;67.25;102138.56;5094530;28;45449;-77
2024/01/29 00:51:57;;;;;;;;;44.33;37.33;;;;;8.93;67.28;102101.97;5091867;28;45169;-76
2024/01/29 00:54:22;;;;;;;;;45.33;37.67;;;;;9.10;67.42;102133.56;5093201;28;44945;-79
2024/01/29 00:56:47;;;;;;;;;39.00;33.33;;;;;8.78;67.24;102082.59;5094741;27;45284;-80
2024/01/29 00:59:13;;;;;;;;;35.33;30.67;;;;;9.12;67.32;102138.78;5094241;27;45778;-80
2024/01/29 01:01:40;;;;;;;;;39.00;34.67;;;;;9.03;66.99;102140.22;5092110;27;45190;-76
2024/01/29 01:04:05;;;;;;;;;47.00;37.33;;;;;9.09;66.68;102145.13;5093286;28;45167;-77
2024/01/29 01:06:31;;;;;;;;;42.33;36.67;;;;;9.01;67.07;102135.94;5075811;27;45206;-77
2024/01/29 01:08:56;;;;;;;;;46.67;37.33;;;;;9.08;66.97;102154.03;5093734;27;45200;-76
2024/01/29 01:11:21;;;;;;;;;43.67;37.00;;;;;9.01;67.66;102141.25;5093047;28;45175;-76
2024/01/29 01:13:49;;;;;;;;;38.67;35.33;;;;;9.06;66.78;102150.66;5071099;28;45478;-78
2024/01/29 01:16:14;;;;;;;;;41.33;35.00;;;;;8.95;66.90;102125.75;5071364;28;45458;-79
2024/01/29 01:18:40;;;;;;;;;45.33;37.67;;;;;9.01;66.88;102135.94;5072501;28;46293;-77
2024/01/29 01:21:07;;;;;;;;;39.33;33.67;;;;;8.91;66.90;102130.41;5073166;28;44881;-77
2024/01/29 01:23:32;;;;;;;;;44.00;36.00;;;;;9.01;66.83;102135.94;5092606;28;46943;-75
2024/01/29 01:25:57;;;;;;;;;40.00;35.00;;;;;8.93;67.28;102130.31;5099081;27;45231;-79
2024/01/29 01:28:23;;;;;;;;;43.00;38.00;;;;;8.80;67.09;102109.88;5101935;27;45640;-77
2024/01/29 01:30:48;;;;;;;;;45.33;37.33;;;;;8.91;67.19;102134.88;5099799;27;44885;-82
2024/01/29 01:33:14;;;;;;;;;48.67;40.33;;;;;8.88;66.86;102124.47;5085465;28;46323;-80
2024/01/29 01:35:39;;;;;;;;;38.33;34.67;;;;;8.48;66.90;102064.25;5082025;28;45218;-84
2024/01/29 01:38:04;;;;;;;;;47.67;39.00;;;;;8.61;67.01;102090.81;5074954;28;44922;-80
2024/01/29 01:40:30;;;;;;;;;44.00;35.33;;;;;8.95;66.95;102155.78;5073280;28;45008;-85
2024/01/29 01:42:56;;;;;;;;;38.33;34.33;;;;;8.94;67.30;102155.88;5074967;28;45858;-84
2024/01/29 01:45:22;;;;;;;;;43.33;36.67;;;;;8.69;67.07;102112.38;5095419;28;45034;-78
2024/01/29 01:47:47;;;;;;;;;41.33;35.33;;;;;8.83;67.11;102138.88;5122474;27;45311;-78
2024/01/29 01:50:13;;;;;;;;;43.67;37.00;;;;;8.84;67.28;102145.88;5105410;27;45267;-77
2024/01/29 01:52:40;;;;;;;;;47.00;38.00;;;;;8.80;67.14;102135.53;5102465;28;44824;-78
2024/01/29 01:55:06;;;;;;;;;39.33;34.00;;;;;8.93;67.05;102159.47;5103188;28;44665;-84
2024/01/29 01:57:32;;;;;;;;;42.33;34.67;;;;;8.32;67.01;102063.47;5097474;28;46887;-85
2024/01/29 01:59:58;;;;;;;;;47.00;36.00;;;;;8.91;67.23;102166.69;5096545;28;45666;-87
2024/01/29 02:02:24;;;;;;;;;42.67;35.67;;;;;8.90;67.27;102159.69;5097410;27;45388;-86
2024/01/29 02:04:49;;;;;;;;;39.67;35.67;;;;;8.68;67.18;102123.09;5113308;27;45365;-79
2024/01/29 02:07:14;;;;;;;;;36.00;33.33;;;;;8.63;67.09;102120.75;5115663;27;44973;-82
2024/01/29 02:09:40;;;;;;;;;37.33;34.33;;;;;8.29;67.22;102061.03;5108056;27;44828;-81
2024/01/29 02:12:08;;;;;;;;;37.33;34.00;;;;;8.89;67.43;102160.63;5119216;27;45070;-81
2024/01/29 02:14:33;;;;;;;;;41.00;34.33;;;;;8.74;66.99;102138.59;5089942;28;44906;-90
2024/01/29 02:16:59;;;;;;;;;41.33;34.33;;;;;8.89;67.00;102163.28;5099403;28;45100;-83
2024/01/29 02:19:25;;;;;;;;;39.67;34.33;;;;;8.87;67.43;102170.50;5097652;28;45229;-84
2024/01/29 02:21:50;;;;;;;;;40.67;34.67;;;;;8.86;67.37;102168.78;5101683;27;45026;-79
2024/01/29 02:24:16;;;;;;;;;34.33;32.00;;;;;8.82;67.68;102165.50;5101149;27;45102;-82
2024/01/29 02:26:45;;;;;;;;;38.67;34.67;;;;;8.13;67.42;102063.78;5106248;27;45212;-82
2024/01/29 02:29:11;;;;;;;;;36.67;33.67;;;;;8.84;67.43;102179.50;5113091;27;45041;-84
2024/01/29 02:31:36;;;;;;;;;39.33;35.33;;;;;8.86;67.57;102174.09;5120926;27;44984;-84
2024/01/29 02:34:02;;;;;;;;;38.67;34.67;;;;;8.83;67.52;102173.34;5100662;27;44786;-82
2024/01/29 02:36:27;;;;;;;;;40.67;34.33;;;;;8.82;67.58;102184.91;5095761;27;45367;-86
2024/01/29 02:38:53;;;;;;;;;41.33;35.33;;;;;8.83;67.52;102169.84;5095394;28;45072;-89
2024/01/29 02:41:18;;;;;;;;;43.67;37.33;;;;;7.85;67.61;102005.56;5097303;28;44937;-87
2024/01/29 02:43:43;;;;;;;;;39.33;34.00;;;;;8.74;67.53;102155.34;5082842;27;45199;-86
2024/01/29 02:46:09;;;;;;;;;38.33;32.00;;;;;8.65;67.36;102140.03;5096679;28;45255;-86
2024/01/29 02:48:34;;;;;;;;;36.33;32.67;;;;;8.40;67.57;102095.66;5102033;28;45196;-82
2024/01/29 02:50:59;;;;;;;;;41.67;35.67;;;;;8.47;67.95;102114.69;5105746;28;44826;-83
2024/01/29 02:53:25;;;;;;;;;41.33;36.33;;;;;8.60;67.88;102138.63;5081103;27;45365;-87
2024/01/29 02:55:50;;;;;;;;;33.67;32.00;;;;;8.32;68.16;102105.03;5109484;27;45135;-87
2024/01/29 02:58:15;;;;;;;;;33.33;29.67;;;;;8.40;67.87;102114.22;5098175;27;44993;-87
2024/01/29 03:00:41;;;;;;;;;40.33;35.33;;;;;8.57;68.17;102144.97;5116880;27;45042;-87
2024/01/29 03:03:06;;;;;;;;;40.67;34.67;;;;;8.53;68.01;102140.81;5115409;27;45072;-88
2024/01/29 03:05:31;;;;;;;;;41.67;35.67;;;;;8.62;67.78;102156.16;5101076;27;46670;-87
2024/01/29 03:07:57;;;;;;;;;32.00;26.00;;;;;8.65;68.09;102155.09;5117825;27;44953;-88
2024/01/29 03:10:23;;;;;;;;;38.33;35.67;;;;;8.43;68.17;102114.03;5118009;27;44960;-89
2024/01/29 03:12:48;;;;;;;;;39.67;34.33;;;;;8.73;68.13;102166.06;5094443;27;44879;-86
2024/01/29 03:15:14;;;;;;;;;36.67;33.33;;;;;8.54;67.80;102150.47;5079804;28;46631;-88
2024/01/29 03:17:39;;;;;;;;;41.00;33.67;;;;;8.49;68.41;102139.31;5097026;28;44957;-84
2024/01/29 03:20:05;;;;;;;;;34.00;31.00;;;;;8.63;68.42;102179.06;5095958;28;45139;-85
2024/01/29 03:22:31;;;;;;;;;31.00;28.33;;;;;8.33;68.94;102125.28;5098271;28;44987;-78
2024/01/29 03:24:56;;;;;;;;;38.00;31.67;;;;;8.59;69.23;102180.19;5115186;27;45524;-76
2024/01/29 03:27:21;;;;;;;;;28.67;25.33;;;;;8.21;69.36;102114.50;5114798;27;45103;-83
2024/01/29 03:29:47;;;;;;;;;34.33;30.67;;;;;8.51;69.83;102175.38;5115378;27;45693;-79
2024/01/29 03:32:12;;;;;;;;;27.00;25.33;;;;;8.47;70.37;102175.66;5114872;27;44996;-81
2024/01/29 03:34:42;;;;;;;;;27.00;25.00;;;;;8.38;70.03;102165.63;5083076;28;47417;-80
2024/01/29 03:37:07;;;;;;;;;31.33;25.00;;;;;8.14;70.59;102123.75;5092750;28;45023;-79
2024/01/29 03:39:33;;;;;;;;;23.00;23.00;;;;;8.39;70.17;102156.72;5094889;28;45500;-79
2024/01/29 03:41:58;;;;;;;;;31.33;28.00;;;;;8.52;70.02;102170.91;5095493;27;44954;-79
2024/01/29 03:44:23;;;;;;;;;24.67;23.00;;;;;8.26;70.13;102126.63;5108029;27;44982;-81
2024/01/29 03:46:51;;;;;;;;;24.67;23.00;;;;;8.52;70.02;102165.63;5097404;27;45897;-80
2024/01/29 03:49:16;;;;;;;;;29.67;28.00;;;;;8.44;70.30;102157.31;5115529;27;45199;-77
2024/01/29 03:51:42;;;;;;;;;24.33;22.67;;;;;8.41;70.16;102147.75;5115518;27;44957;-82
2024/01/29 03:54:07;;;;;;;;;30.67;27.67;;;;;8.42;70.15;102148.59;5094948;27;46636;-80
2024/01/29 03:56:32;;;;;;;;;17.33;15.00;;;;;8.39;70.33;102146.13;5111298;27;45122;-80
2024/01/29 03:58:58;;;;;;;;;31.33;26.00;;;;;8.33;70.18;102135.88;5114078;27;45206;-83
2024/01/29 04:01:27;;;;;;;;;27.67;26.00;;;;;8.29;70.25;102126.41;5097181;27;45048;-85
2024/01/29 04:03:53;;;;;;;;;25.67;25.67;;;;;8.49;70.00;102160.50;5072748;28;45871;-77
2024/01/29 04:06:18;;;;;;;;;26.00;24.00;;;;;8.18;70.50;102109.38;5074601;28;45077;-77
2024/01/29 04:08:43;;;;;;;;;27.33;26.00;;;;;7.88;70.32;102076.84;5077305;28;45061;-79
2024/01/29 04:11:09;;;;;;;;;30.00;23.67;;;;;8.48;70.25;102172.91;5100839;27;45185;-77
2024/01/29 04:13:34;;;;;;;;;25.67;25.67;;;;;8.45;70.32;102173.09;5114255;27;44992;-79
2024/01/29 04:16:00;;;;;;;;;21.33;20.00;;;;;8.35;70.43;102150.75;5115329;27;45260;-78
2024/01/29 04:18:25;;;;;;;;;28.33;27.33;;;;;8.42;70.49;102164.50;5113275;27;45144;-82
2024/01/29 04:20:52;;;;;;;;;27.33;24.67;;;;;8.37;70.58;102162.09;5115862;27;45321;-77
2024/01/29 04:23:18;;;;;;;;;31.00;25.67;;;;;7.91;70.91;102084.59;5117882;27;45040;-77
2024/01/29 04:25:43;;;;;;;;;26.00;21.00;;;;;8.36;70.68;102160.41;5117401;27;45394;-77
2024/01/29 04:28:09;;;;;;;;;25.00;21.67;;;;;8.36;70.78;102159.56;5118948;27;44946;-79
2024/01/29 04:30:35;;;;;;;;;28.33;26.33;;;;;8.24;70.89;102145.25;5090074;27;45022;-78
2024/01/29 04:33:01;;;;;;;;;22.67;22.67;;;;;7.98;70.69;102096.50;5097252;28;45339;-81
2024/01/29 04:35:27;;;;;;;;;26.33;25.00;;;;;8.34;70.40;102158.81;5078187;28;45296;-78
2024/01/29 04:37:52;;;;;;;;;25.00;25.00;;;;;8.41;70.72;102165.41;5078732;28;45092;-77
2024/01/29 04:40:17;;;;;;;;;26.33;22.00;;;;;8.35;70.63;102145.47;5097772;27;45322;-77
2024/01/29 04:42:43;;;;;;;;;27.33;24.33;;;;;8.48;70.62;102153.50;5118047;27;46244;-78
2024/01/29 04:45:08;;;;;;;;;24.33;23.67;;;;;8.49;70.63;102161.34;5099174;28;44998;-78
2024/01/29 04:47:34;;;;;;;;;23.00;20.33;;;;;8.51;70.35;102172.72;5096767;28;44939;-79
2024/01/29 04:49:59;;;;;;;;;19.00;19.00;;;;;8.57;70.64;102176.78;5098572;27;44883;-80
2024/01/29 04:52:25;;;;;;;;;27.00;21.33;;;;;8.62;70.57;102182.66;5115828;27;45515;-77
2024/01/29 04:54:50;;;;;;;;;21.00;19.67;;;;;8.66;69.82;102184.16;5114714;27;44953;-78
2024/01/29 04:57:15;;;;;;;;;28.33;26.33;;;;;8.61;69.73;102169.47;5115858;27;44985;-79
2024/01/29 04:59:42;;;;;;;;;27.67;23.00;;;;;8.46;69.65;102142.16;5115687;27;45360;-77
2024/01/29 05:02:07;;;;;;;;;21.00;18.33;;;;;8.71;69.84;102183.88;5095513;27;45114;-78
2024/01/29 05:04:32;;;;;;;;;22.67;21.00;;;;;8.61;69.56;102173.00;5097934;28;45422;-81
2024/01/29 05:06:58;;;;;;;;;23.00;20.00;;;;;8.58;69.74;102164.38;5100873;28;45046;-76
2024/01/29 05:09:23;;;;;;;;;21.33;20.33;;;;;8.43;70.22;102150.31;5087838;28;45394;-79
2024/01/29 05:11:48;;;;;;;;;21.00;19.33;;;;;8.52;70.55;102176.22;5104066;28;45085;-82
2024/01/29 05:14:14;;;;;;;;;23.00;20.00;;;;;8.52;70.13;102173.56;5103639;27;45021;-78
2024/01/29 05:16:39;;;;;;;;;18.33;18.33;;;;;8.56;70.38;102184.81;5097951;28;45244;-83
2024/01/29 05:19:05;;;;;;;;;19.33;19.33;;;;;8.47;70.15;102163.25;5086761;27;45229;-84
2024/01/29 05:21:30;;;;;;;;;19.00;19.00;;;;;8.53;70.35;102175.28;5118980;27;45531;-83
2024/01/29 05:23:55;;;;;;;;;16.00;14.67;;;;;8.24;70.26;102127.56;5095946;27;44919;-84
2024/01/29 05:26:21;;;;;;;;;19.33;16.00;;;;;8.59;70.45;102182.81;5096634;28;45199;-83
2024/01/29 05:28:48;;;;;;;;;24.33;20.00;;;;;8.34;70.08;102141.09;5078176;28;45053;-85
2024/01/29 05:31:13;;;;;;;;;20.67;18.33;;;;;8.57;70.22;102184.72;5098163;28;45064;-82
2024/01/29 05:33:38;;;;;;;;;21.33;20.33;;;;;8.43;70.23;102150.31;5081608;28;44867;-82
2024/01/29 05:36:04;;;;;;;;;17.33;17.33;;;;;8.57;70.06;102182.06;5101596;28;44797;-81
2024/01/29 05:38:32;;;;;;;;;21.33;19.33;;;;;8.49;69.96;102171.13;5099480;27;44836;-80
2024/01/29 05:40:57;;;;;;;;;22.67;18.67;;;;;8.42;70.38;102170.66;5106863;27;45646;-79
2024/01/29 05:43:22;;;;;;;;;19.00;18.33;;;;;8.38;70.23;102170.91;5096000;27;45339;-83
2024/01/29 05:45:48;;;;;;;;;20.67;20.67;;;;;8.36;70.65;102173.66;5087480;28;45280;-84
2024/01/29 05:48:13;;;;;;;;;20.33;16.33;;;;;8.12;70.69;102146.00;5093542;27;44681;-81
2024/01/29 05:50:39;;;;;;;;;22.00;20.67;;;;;7.82;71.02;102101.06;5105432;27;44989;-84
2024/01/29 05:53:04;;;;;;;;;17.67;16.00;;;;;8.40;70.80;102192.88;5080060;28;45034;-84
2024/01/29 05:55:30;;;;;;;;;22.67;17.67;;;;;8.38;70.94;102200.91;5105861;28;45169;-80
2024/01/29 05:57:55;;;;;;;;;19.00;19.00;;;;;8.41;70.90;102198.09;5098287;28;45131;-85
2024/01/29 06:00:21;;;;;;;;;18.00;18.00;;;;;8.37;71.33;102193.91;5095773;27;45378;-88
2024/01/29 06:02:48;;;;;;;;;21.00;18.00;;;;;8.30;71.02;102186.41;5097192;27;45104;-82
2024/01/29 06:05:13;;;;;;;;;18.67;18.33;;;;;8.42;71.25;102206.91;5113456;27;44920;-83
2024/01/29 06:07:40;;;;;;;;;19.67;17.67;;;;;8.38;71.28;102200.06;5087275;27;45473;-86
2024/01/29 06:10:07;;;;;;;;;19.67;19.67;;;;;8.32;71.38;102189.81;5101290;27;45351;-80
2024/01/29 06:12:32;;;;;;;;;21.00;17.67;;;;;8.22;71.34;102168.34;5119679;27;44789;-80
2024/01/29 06:14:58;;;;;;;;;17.67;16.67;;;;;8.03;71.03;102136.81;5111858;27;45187;-82
2024/01/29 06:17:23;;;;;;;;;18.00;17.00;;;;;8.45;70.81;102196.97;5106955;27;44973;-85
2024/01/29 06:19:48;;;;;;;;;16.33;15.33;;;;;8.65;70.45;102221.38;5107019;27;45532;-83
2024/01/29 06:22:14;;;;;;;;;21.00;18.33;;;;;8.68;70.59;102227.34;5107124;27;45011;-85
2024/01/29 06:24:39;;;;;;;;;22.67;19.67;;;;;8.70;70.67;102228.09;5112931;27;45318;-81
2024/01/29 06:27:05;;;;;;;;;18.00;17.33;;;;;8.71;70.74;102229.78;5112306;27;45447;-84
2024/01/29 06:29:30;;;;;;;;;15.00;15.00;;;;;8.71;70.96;102251.00;5113759;27;45676;-84
2024/01/29 06:31:55;;;;;;;;;19.00;18.67;;;;;8.20;70.88;102152.50;5112572;27;44954;-83
2024/01/29 06:34:23;;;;;;;;;21.33;21.33;;;;;8.73;70.49;102237.66;5096043;27;44878;-86
2024/01/29 06:36:51;;;;;;;;;21.67;20.00;;;;;8.28;70.55;102161.81;5094186;28;44902;-82
2024/01/29 06:39:16;;;;;;;;;20.33;20.00;;;;;8.43;70.07;102200.66;5097198;27;45135;-84
2024/01/29 06:41:41;;;;;;;;;23.00;22.67;;;;;8.38;70.47;102200.91;5092613;28;44970;-85
2024/01/29 06:44:07;;;;;;;;;22.00;20.67;;;;;8.48;70.68;102233.03;5092436;28;45216;-79
2024/01/29 06:46:32;;;;;;;;;23.00;20.67;;;;;8.40;70.73;102229.97;5092001;28;45232;-79
2024/01/29 06:48:58;;;;;;;;;19.33;17.00;;;;;8.52;70.98;102250.44;5090564;27;45377;-85
2024/01/29 06:51:23;;;;;;;;;25.33;22.00;;;;;8.13;71.03;102188.28;5100616;27;45312;-82
2024/01/29 06:53:48;;;;;;;;;23.67;19.33;;;;;8.43;70.82;102235.97;5107982;27;45377;-80
2024/01/29 06:56:14;;;;;;;;;27.33;24.67;;;;;8.51;70.50;102249.59;5076405;28;45356;-78
2024/01/29 06:58:40;;;;;;;;;29.00;23.00;;;;;7.39;70.85;102079.78;5097714;28;45061;-77
2024/01/29 07:01:06;;;;;;;;;13.67;13.67;;;;;7.28;70.62;102037.25;5095103;27;45126;-78
2024/01/29 07:03:32;;;;;;;;;23.00;21.67;;;;;8.10;70.80;102191.13;5095355;28;44903;-79
2024/01/29 07:05:59;;;;;;;;;24.00;22.33;;;;;8.46;71.17;102264.91;5093822;28;45109;-79
2024/01/29 07:08:25;;;;;;;;;21.67;18.67;;;;;8.30;71.06;102244.69;5081069;27;45365;-80
2024/01/29 07:10:50;;;;;;;;;22.67;21.33;;;;;8.36;71.26;102262.91;5072767;28;45230;-77
2024/01/29 07:13:16;;;;;;;;;21.00;21.00;;;;;8.23;71.37;102255.69;5087848;28;45225;-77
2024/01/29 07:15:42;;;;;;;;;29.67;28.67;;;;;8.29;71.15;102266.84;5083248;28;45590;-77
2024/01/29 07:18:07;;;;;;;;;29.00;26.33;;;;;8.10;71.47;102238.81;5079723;27;45906;-79
2024/01/29 07:20:38;;;;;;;;;28.00;25.67;;;;;8.14;71.84;102258.00;5086017;28;45360;-82
2024/01/29 07:23:08;;;;;;;;;26.33;26.33;;;;;8.18;71.67;102268.31;5097832;27;45042;-79
2024/01/29 07:25:34;;;;;;;;;31.00;25.33;;;;;8.14;72.07;102277.41;5069829;28;45538;-84
2024/01/29 07:28:03;;;;;;;;;24.67;21.67;;;;;7.58;71.81;102183.63;5089676;27;45698;-79
2024/01/29 07:30:28;;;;;;;;;25.33;20.67;;;;;8.09;71.91;102260.09;5090233;27;45378;-79
2024/01/29 07:32:54;;;;;;;;;26.33;21.67;;;;;7.81;71.57;102208.75;5076277;27;45471;-79
2024/01/29 07:35:19;;;;;;;;;22.00;22.00;;;;;8.15;71.86;102268.50;5076176;27;45402;-77
2024/01/29 07:37:45;;;;;;;;;23.00;18.33;;;;;8.24;71.35;102275.09;5078316;27;45906;-79
2024/01/29 07:40:11;;;;;;;;;23.67;20.00;;;;;8.33;71.61;102287.75;5088582;27;45495;-80
2024/01/29 07:42:36;;;;;;;;;19.00;19.00;;;;;8.04;71.80;102241.81;5064710;27;45401;-78
2024/01/29 07:45:02;;;;;;;;;22.33;17.00;;;;;7.61;71.72;102172.88;5083671;27;45484;-80
2024/01/29 07:47:27;;;;;;;;;20.67;20.00;;;;;8.35;71.89;102293.00;5085660;27;46250;-79
2024/01/29 07:49:53;;;;;;;;;20.00;18.00;;;;;8.22;71.73;102277.81;5088602;27;45400;-80
2024/01/29 07:52:19;;;;;;;;;23.00;19.00;;;;;8.07;71.57;102243.44;5093787;27;45441;-80
2024/01/29 07:54:44;;;;;;;;;21.00;18.67;;;;;8.48;71.63;102293.97;5100171;27;45452;-80
2024/01/29 07:57:10;;;;;;;;;21.33;19.33;;;;;8.13;71.68;102229.81;5095790;27;45499;-79
2024/01/29 07:59:35;;;;;;;;;22.67;18.00;;;;;8.56;71.51;102293.50;5089551;27;45480;-81
2024/01/29 08:02:00;;;;;;;;;26.00;21.00;;;;;8.64;71.19;102293.91;5095871;27;45585;-80
2024/01/29 08:04:26;;;;;;;;;21.67;18.67;;;;;8.80;70.75;102319.38;5085527;27;45570;-79
2024/01/29 08:06:52;;;;;;;;;21.33;19.00;;;;;8.81;70.47;102294.59;5089862;28;46132;-85
2024/01/29 08:09:18;;;;;;;;;19.67;19.00;;;;;9.00;70.39;102309.34;5089302;28;45125;-84
2024/01/29 08:11:44;;;;;;;;;18.67;17.33;;;;;9.00;70.20;102288.09;5091600;28;44954;-84
2024/01/29 08:14:09;;;;;;;;;20.33;20.00;;;;;9.10;70.37;102295.41;5091168;27;45366;-77
2024/01/29 08:16:35;;;;;;;;;18.33;16.00;;;;;8.55;70.18;102197.22;5071201;28;46779;-82
2024/01/29 08:19:00;;;;;;;;;19.33;18.33;;;;;9.23;70.51;102306.13;5074728;27;45577;-78
2024/01/29 08:21:26;;;;;;;;;22.33;19.33;;;;;9.24;69.99;102283.06;5077893;28;45476;-78
2024/01/29 08:23:52;;;;;;;;;23.00;21.67;;;;;9.26;69.44;102284.69;5081529;27;45434;-78
2024/01/29 08:26:17;;;;;;;;;22.67;20.00;;;;;9.11;69.75;102245.84;5094480;27;45331;-81
2024/01/29 08:28:43;;;;;;;;;24.67;22.00;;;;;9.44;69.60;102303.88;5094402;27;44929;-80
2024/01/29 08:31:09;;;;;;;;;25.33;22.00;;;;;9.51;69.52;102297.22;5105665;27;45549;-80
2024/01/29 08:33:34;;;;;;;;;20.00;19.33;;;;;9.32;69.15;102247.13;5112439;27;44947;-81
2024/01/29 08:35:59;;;;;;;;;22.00;19.00;;;;;9.73;68.62;102302.00;5111868;27;45249;-77
2024/01/29 08:38:25;;;;;;;;;20.67;16.00;;;;;9.57;68.49;102257.00;5112828;27;44874;-80
2024/01/29 08:40:50;;;;;;;;;21.67;19.33;;;;;9.67;68.28;102247.47;5117461;27;45024;-83
2024/01/29 08:43:16;;;;;;;;;25.00;20.00;;;;;10.00;67.82;102292.19;5113063;27;45068;-80
2024/01/29 08:45:41;;;;;;;;;25.00;21.00;;;;;10.18;67.36;102297.22;5121394;27;45035;-82
2024/01/29 08:48:07;;;;;;;;;25.67;21.00;;;;;10.29;67.32;102302.72;5119221;27;44841;-87
2024/01/29 08:50:34;;;;;;;;;19.67;19.67;;;;;10.16;67.29;102264.59;5114393;27;45095;-89
2024/01/29 08:53:00;;;;;;;;;24.33;23.00;;;;;9.91;66.91;102199.81;5076110;27;45082;-80
2024/01/29 08:55:25;;;;;;;;;19.33;16.33;;;;;10.66;66.39;102306.38;5113018;27;47560;-82
2024/01/29 08:57:51;;;;;;;;;17.67;17.67;;;;;10.87;65.82;102304.00;5127343;27;45445;-77
2024/01/29 09:00:16;;;;;;;;;19.33;19.33;;;;;11.06;65.66;102288.44;5120763;27;44951;-81
2024/01/29 09:02:43;;;;;;;;;24.00;20.33;;;;;11.08;64.75;102251.91;5119438;27;45582;-82
2024/01/29 09:05:08;;;;;;;;;24.67;20.33;;;;;11.67;64.15;102299.97;5116215;27;45777;-88
2024/01/29 09:07:34;;;;;;;;;21.67;20.67;;;;;11.94;63.16;102305.09;5119661;27;45821;-84
2024/01/29 09:10:00;;;;;;;;;23.67;20.67;;;;;11.53;62.27;102185.59;5120224;27;45156;-88
2024/01/29 09:12:25;;;;;;;;;17.67;16.33;;;;;12.56;61.64;102301.28;5111537;27;45007;-86
2024/01/29 09:14:51;;;;;;;;;21.67;20.67;;;;;12.80;60.54;102304.69;5107437;27;45107;-86
2024/01/29 09:17:16;;;;;;;;;22.00;21.00;;;;;12.98;59.96;102286.38;5096678;28;45155;-87
2024/01/29 09:19:45;;;;;;;;;25.67;22.00;;;;;13.42;59.05;102298.88;5103445;27;44965;-86
2024/01/29 09:22:13;;;;;;;;;23.00;20.00;;;;;13.82;57.84;102301.81;5113840;27;45259;-88
2024/01/29 09:24:38;;;;;;;;;23.33;22.00;;;;;13.87;56.97;102247.94;5111708;27;45525;-87
2024/01/29 09:27:07;;;;;;;;;21.33;20.00;;;;;14.28;55.99;102292.59;5104402;27;44893;-84
2024/01/29 09:29:32;;;;;;;;;19.67;18.67;;;;;14.34;56.13;102296.56;5071961;27;45305;-84
2024/01/29 09:31:58;;;;;;;;;21.33;21.33;;;;;14.33;55.57;102303.75;5111383;27;44786;-80
2024/01/29 09:34:24;;;;;;;;;21.67;20.67;;;;;12.78;56.30;102075.28;5112120;27;44994;-83
2024/01/29 09:36:50;;;;;;;;;18.67;18.67;;;;;13.87;56.55;102280.03;5122638;27;45082;-86
2024/01/29 09:39:15;;;;;;;;;19.67;18.33;;;;;13.84;57.20;102315.03;5120766;27;45071;-84
2024/01/29 09:41:42;;;;;;;;;23.33;20.00;;;;;13.69;57.17;102318.00;5125259;27;44809;-84
2024/01/29 09:44:09;;;;;;;;;23.67;21.00;;;;;13.61;57.55;102314.22;5105182;27;45177;-87
2024/01/29 09:46:37;;;;;;;;;25.67;21.00;;;;;13.53;57.99;102322.88;5122290;27;45204;-89
2024/01/29 09:49:03;;;;;;;;;20.00;16.33;;;;;12.83;58.43;102227.06;5121267;27;45058;-87
2024/01/29 09:51:29;;;;;;;;;21.33;16.33;;;;;13.37;58.71;102322.41;5113173;27;44893;-88
2024/01/29 09:53:55;;;;;;;;;20.67;19.00;;;;;13.14;58.69;102305.53;5111770;27;46369;-86
2024/01/29 09:56:20;;;;;;;;;15.00;13.67;;;;;13.22;58.79;102329.03;5107317;27;45318;-81
2024/01/29 09:58:47;;;;;;;;;20.67;19.67;;;;;13.08;59.39;102311.38;5124795;27;44821;-83
2024/01/29 10:01:14;;;;;;;;;17.33;15.67;;;;;12.91;59.53;102288.69;5102662;28;45133;-81
2024/01/29 10:03:41;;;;;;;;;19.33;17.67;;;;;13.07;59.69;102336.38;5108451;27;45346;-82
2024/01/29 10:06:07;;;;;;;;;20.33;16.00;;;;;13.02;60.16;102333.25;5120865;27;44905;-83
2024/01/29 10:08:33;;;;;;;;;24.33;23.00;;;;;12.98;59.71;102332.59;5114517;27;45170;-81
2024/01/29 10:10:59;;;;;;;;;23.67;21.00;;;;;12.99;59.72;102334.31;5117609;27;44919;-82
2024/01/29 10:13:24;;;;;;;;;21.00;18.67;;;;;12.99;60.05;102331.63;5102671;28;45584;-84
2024/01/29 10:15:52;;;;;;;;;24.33;24.33;;;;;12.47;59.54;102253.00;5108074;27;44604;-82
2024/01/29 10:18:17;;;;;;;;;19.00;19.00;;;;;12.18;59.89;102198.41;5104328;27;45013;-85
2024/01/29 10:20:43;;;;;;;;;20.00;19.00;;;;;12.80;60.52;102297.53;5112395;27;45145;-85
2024/01/29 10:23:09;;;;;;;;;23.67;20.67;;;;;12.87;60.19;102303.25;5121530;27;45113;-85
2024/01/29 10:25:38;;;;;;;;;22.00;22.00;;;;;12.52;60.12;102249.13;5113478;27;44995;-81
2024/01/29 10:28:10;;;;;;;;;20.33;19.00;;;;;12.56;60.06;102264.75;5084090;28;44965;-86
2024/01/29 10:30:39;;;;;;;;;22.00;20.33;;;;;12.75;59.92;102302.38;5110854;27;44917;-88
2024/01/29 10:33:08;;;;;;;;;23.33;20.33;;;;;12.29;60.38;102227.75;5119347;27;45125;-83
2024/01/29 10:35:36;;;;;;;;;20.67;16.33;;;;;12.87;60.16;102334.44;5112122;27;45019;-82
2024/01/29 10:38:04;;;;;;;;;24.67;19.33;;;;;12.42;60.06;102265.84;5121563;27;44594;-82
2024/01/29 10:40:31;;;;;;;;;27.67;23.67;;;;;12.41;60.55;102266.84;5116296;27;44905;-83
2024/01/29 10:43:01;;;;;;;;;26.00;24.33;;;;;12.62;60.94;102319.50;5116034;27;45180;-82
2024/01/29 10:45:28;;;;;;;;;16.33;15.67;;;;;12.26;60.78;102249.34;5111236;27;45113;-80
2024/01/29 10:48:07;;;;;;;;;17.00;15.67;;;;;12.64;60.86;102312.22;5094985;27;45171;-85
2024/01/29 10:50:34;;;;;;;;;25.00;22.67;;;;;12.63;61.23;102315.84;5103111;27;45178;-80
2024/01/29 10:53:03;;;;;;;;;25.00;22.00;;;;;12.37;61.15;102268.00;5113793;27;46042;-79
2024/01/29 10:55:30;;;;;;;;;25.67;22.00;;;;;12.34;61.29;102265.59;5111251;27;45118;-79
2024/01/29 10:58:00;;;;;;;;;27.67;26.67;;;;;12.59;61.62;102309.03;5097458;27;44958;-80
2024/01/29 11:00:31;;;;;;;;;22.33;20.00;;;;;12.22;61.35;102244.38;5104243;27;45159;-81
2024/01/29 11:02:58;;;;;;;;;28.33;22.33;;;;;12.64;61.79;102306.88;5113956;27;45604;-82
2024/01/29 11:05:25;;;;;;;;;21.33;19.67;;;;;12.64;61.74;102302.38;5115510;27;45085;-82
2024/01/29 11:07:54;;;;;;;;;25.67;22.33;;;;;11.96;61.58;102182.38;5116739;27;45128;-84